sensor_id;sensor_type;location;lat;lon;timestamp;temperature;humidity
11280;DHT22;5696;50.928;6.960;2022-12-07T06:04:01;5.40;99.90
11280;DHT22;5696;50.928;6.960;2022-12-07T06:06:28;5.30;99.90
11280;DHT22;5696;50.928;6.960;2022-12-07T06:08:53;5.30;99.90
11280;DHT22;5696;50.928;6.960;2022-12-07T06:11:19;5.20;99.90
11280;DHT22;5696;50.928;6.960;2022-12-07T06:14:03;5.20;99.90
11280;DHT22;5696;50.928;6.960;2022-12-07T06:16:29;5.20;99.90
11280;DHT22;5696;50.928;6.960;2022-12-07T06:18:55;5.10;99.90
11280;DHT22;5696;50.928;6.960;2022-12-07T06:21:20;5.10;99.90
11280;DHT22;5696;50.928;6.960;2022-12-07T06:23:46;5.00;99.90
11280;DHT22;5696;50.928;6.960;2022-12-07T06:26:13;5.00;99.90
11280;DHT22;5696;50.928;6.960;2022-12-07T06:28:38;5.00;99.90
11280;DHT22;5696;50.928;6.960;2022-12-07T06:31:04;5.00;99.90
11280;DHT22;5696;50.928;6.960;2022-12-07T06:33:30;5.00;99.90
11280;DHT22;5696;50.928;6.960;2022-12-07T06:35:55;5.00;99.90
11280;DHT22;5696;50.928;6.960;2022-12-07T06:38:21;5.00;99.90
11280;DHT22;5696;50.928;6.960;2022-12-07T06:40:47;5.00;99.90
11280;DHT22;5696;50.928;6.960;2022-12-07T06:43:13;5.00;99.90
11280;DHT22;5696;50.928;6.960;2022-12-07T06:45:45;5.00;99.90
11280;DHT22;5696;50.928;6.960;2022-12-07T06:48:10;5.00;99.90
11280;DHT22;5696;50.928;6.960;2022-12-07T06:50:36;5.00;99.90
11280;DHT22;5696;50.928;6.960;2022-12-07T06:53:01;5.10;99.90
11280;DHT22;5696;50.928;6.960;2022-12-07T06:55:27;5.10;99.90
11280;DHT22;5696;50.928;6.960;2022-12-07T06:57:53;5.10;99.90
11280;DHT22;5696;50.928;6.960;2022-12-07T07:00:19;5.20;99.90
11280;DHT22;5696;50.928;6.960;2022-12-07T07:02:44;5.20;99.90
11280;DHT22;5696;50.928;6.960;2022-12-07T07:05:10;5.30;99.90
11280;DHT22;5696;50.928;6.960;2022-12-07T07:07:35;5.30;99.90
11280;DHT22;5696;50.928;6.960;2022-12-07T07:10:01;5.30;99.90
11280;DHT22;5696;50.928;6.960;2022-12-07T07:12:27;5.40;99.90
11280;DHT22;5696;50.928;6.960;2022-12-07T07:14:52;5.30;99.90
11280;DHT22;5696;50.928;6.960;2022-12-07T07:17:18;5.30;99.90
11280;DHT22;5696;50.928;6.960;2022-12-07T07:19:44;5.30;99.90
11280;DHT22;5696;50.928;6.960;2022-12-07T07:22:09;5.40;99.90
11280;DHT22;5696;50.928;6.960;2022-12-07T07:24:35;5.40;99.90
11280;DHT22;5696;50.928;6.960;2022-12-07T07:27:00;5.40;99.90
11280;DHT22;5696;50.928;6.960;2022-12-07T07:29:26;5.40;99.90
11280;DHT22;5696;50.928;6.960;2022-12-07T07:31:52;5.40;99.90
11280;DHT22;5696;50.928;6.960;2022-12-07T07:34:17;5.40;99.90
11280;DHT22;5696;50.928;6.960;2022-12-07T07:36:43;5.30;99.90
11280;DHT22;5696;50.928;6.960;2022-12-07T07:39:10;5.40;99.90
11280;DHT22;5696;50.928;6.960;2022-12-07T07:41:38;5.40;99.90
11280;DHT22;5696;50.928;6.960;2022-12-07T07:44:03;5.40;99.90
11280;DHT22;5696;50.928;6.960;2022-12-07T07:46:29;5.40;99.90
11280;DHT22;5696;50.928;6.960;2022-12-07T07:48:55;5.40;99.90
11280;DHT22;5696;50.928;6.960;2022-12-07T07:51:21;5.50;99.90
11280;DHT22;5696;50.928;6.960;2022-12-07T07:53:46;5.60;99.90
11280;DHT22;5696;50.928;6.960;2022-12-07T07:56:12;5.60;99.90
11280;DHT22;5696;50.928;6.960;2022-12-07T07:58:38;5.70;99.90
11280;DHT22;5696;50.928;6.960;2022-12-07T08:01:06;5.70;99.90
11280;DHT22;5696;50.928;6.960;2022-12-07T08:03:32;5.70;99.90
11280;DHT22;5696;50.928;6.960;2022-12-07T08:05:58;5.80;99.90
11280;DHT22;5696;50.928;6.960;2022-12-07T08:08:23;5.80;99.90
11280;DHT22;5696;50.928;6.960;2022-12-07T08:10:49;5.80;99.90
11280;DHT22;5696;50.928;6.960;2022-12-07T08:13:16;5.80;99.90
11280;DHT22;5696;50.928;6.960;2022-12-07T08:15:44;5.80;99.90
11280;DHT22;5696;50.928;6.960;2022-12-07T08:18:11;5.80;99.90
11280;DHT22;5696;50.928;6.960;2022-12-07T08:20:38;5.90;99.90
11280;DHT22;5696;50.928;6.960;2022-12-07T08:23:05;5.90;99.90
11280;DHT22;5696;50.928;6.960;2022-12-07T08:25:32;5.90;99.90
11280;DHT22;5696;50.928;6.960;2022-12-07T08:27:57;5.80;99.90
11280;DHT22;5696;50.928;6.960;2022-12-07T08:30:23;5.80;99.90
11280;DHT22;5696;50.928;6.960;2022-12-07T08:32:49;5.80;99.90
11280;DHT22;5696;50.928;6.960;2022-12-07T08:35:15;5.80;99.90
11280;DHT22;5696;50.928;6.960;2022-12-07T08:37:41;5.90;99.90
11280;DHT22;5696;50.928;6.960;2022-12-07T08:40:08;6.00;99.90
11280;DHT22;5696;50.928;6.960;2022-12-07T08:42:34;6.00;99.90
11280;DHT22;5696;50.928;6.960;2022-12-07T08:45:09;6.10;99.90
11280;DHT22;5696;50.928;6.960;2022-12-07T08:47:38;6.20;99.90
11280;DHT22;5696;50.928;6.960;2022-12-07T08:50:06;6.30;99.90
11280;DHT22;5696;50.928;6.960;2022-12-07T08:52:34;6.40;99.90
11280;DHT22;5696;50.928;6.960;2022-12-07T08:55:00;6.40;99.90
11280;DHT22;5696;50.928;6.960;2022-12-07T08:57:27;6.60;99.90
11280;DHT22;5696;50.928;6.960;2022-12-07T08:59:53;6.60;99.90
11280;DHT22;5696;50.928;6.960;2022-12-07T09:02:19;6.60;99.90
11280;DHT22;5696;50.928;6.960;2022-12-07T09:04:45;6.60;99.90
11280;DHT22;5696;50.928;6.960;2022-12-07T09:07:10;6.70;99.90
11280;DHT22;5696;50.928;6.960;2022-12-07T09:09:36;6.70;99.90
11280;DHT22;5696;50.928;6.960;2022-12-07T09:12:02;6.70;99.90
11280;DHT22;5696;50.928;6.960;2022-12-07T09:14:28;6.80;99.90
11280;DHT22;5696;50.928;6.960;2022-12-07T09:16:53;7.00;99.90
11280;DHT22;5696;50.928;6.960;2022-12-07T09:19:19;7.00;99.90
11280;DHT22;5696;50.928;6.960;2022-12-07T09:21:45;7.00;99.90
11280;DHT22;5696;50.928;6.960;2022-12-07T09:24:12;7.00;99.90
11280;DHT22;5696;50.928;6.960;2022-12-07T09:26:37;7.00;99.90
11280;DHT22;5696;50.928;6.960;2022-12-07T09:29:04;7.10;99.90
11280;DHT22;5696;50.928;6.960;2022-12-07T09:31:30;7.10;99.90
11280;DHT22;5696;50.928;6.960;2022-12-07T09:34:00;7.10;99.90
11280;DHT22;5696;50.928;6.960;2022-12-07T09:36:26;7.00;99.90
11280;DHT22;5696;50.928;6.960;2022-12-07T09:38:52;7.10;99.90
11280;DHT22;5696;50.928;6.960;2022-12-07T09:41:18;7.20;99.90
11280;DHT22;5696;50.928;6.960;2022-12-07T09:43:44;7.20;99.90
11280;DHT22;5696;50.928;6.960;2022-12-07T09:46:16;7.30;99.90
11280;DHT22;5696;50.928;6.960;2022-12-07T09:48:44;7.30;99.90
11280;DHT22;5696;50.928;6.960;2022-12-07T09:51:16;7.30;99.90
11280;DHT22;5696;50.928;6.960;2022-12-07T09:53:42;7.30;99.90
11280;DHT22;5696;50.928;6.960;2022-12-07T09:56:13;7.30;99.90
11280;DHT22;5696;50.928;6.960;2022-12-07T09:58:39;7.20;99.90
11280;DHT22;5696;50.928;6.960;2022-12-07T10:03:34;7.40;99.90
11280;DHT22;5696;50.928;6.960;2022-12-07T10:06:01;7.60;99.90
11280;DHT22;5696;50.928;6.960;2022-12-07T10:08:27;7.60;99.90
11280;DHT22;5696;50.928;6.960;2022-12-07T10:10:55;7.60;99.90
11280;DHT22;5696;50.928;6.960;2022-12-07T10:13:38;7.50;99.90
11280;DHT22;5696;50.928;6.960;2022-12-07T10:16:05;7.50;99.90
11280;DHT22;5696;50.928;6.960;2022-12-07T10:18:36;7.60;99.90
11280;DHT22;5696;50.928;6.960;2022-12-07T10:21:12;7.50;99.90
11280;DHT22;5696;50.928;6.960;2022-12-07T10:26:53;7.40;99.90
11280;DHT22;5696;50.928;6.960;2022-12-07T10:29:38;7.50;99.90
11280;DHT22;5696;50.928;6.960;2022-12-07T10:32:35;7.70;99.90
11280;DHT22;5696;50.928;6.960;2022-12-07T10:37:49;7.60;99.90
11280;DHT22;5696;50.928;6.960;2022-12-07T10:40:30;7.60;99.90
11280;DHT22;5696;50.928;6.960;2022-12-07T10:45:31;7.70;99.90
11280;DHT22;5696;50.928;6.960;2022-12-07T10:51:15;7.70;99.90
11280;DHT22;5696;50.928;6.960;2022-12-07T10:53:50;7.70;99.90
11280;DHT22;5696;50.928;6.960;2022-12-07T10:56:59;7.90;99.90
11280;DHT22;5696;50.928;6.960;2022-12-07T10:59:39;8.00;99.90
11280;DHT22;5696;50.928;6.960;2022-12-07T11:05:17;8.20;99.90
11280;DHT22;5696;50.928;6.960;2022-12-07T11:08:13;8.10;99.90
11280;DHT22;5696;50.928;6.960;2022-12-07T11:21:56;8.10;99.90
11280;DHT22;5696;50.928;6.960;2022-12-07T11:24:40;8.20;99.90
11280;DHT22;5696;50.928;6.960;2022-12-07T11:30:19;8.20;99.90
11280;DHT22;5696;50.928;6.960;2022-12-07T11:35:48;7.90;99.90
11280;DHT22;5696;50.928;6.960;2022-12-07T11:38:26;7.90;99.90
11280;DHT22;5696;50.928;6.960;2022-12-07T11:41:00;7.90;99.90
11280;DHT22;5696;50.928;6.960;2022-12-07T11:46:27;8.10;99.90
11280;DHT22;5696;50.928;6.960;2022-12-07T11:49:15;8.00;99.90
11280;DHT22;5696;50.928;6.960;2022-12-07T11:51:45;7.90;99.90
11280;DHT22;5696;50.928;6.960;2022-12-07T11:54:21;8.00;99.90
11280;DHT22;5696;50.928;6.960;2022-12-07T11:56:50;8.00;99.90
11280;DHT22;5696;50.928;6.960;2022-12-07T11:59:23;7.90;99.90
11280;DHT22;5696;50.928;6.960;2022-12-07T12:01:55;7.80;99.90
11280;DHT22;5696;50.928;6.960;2022-12-07T12:04:35;7.80;99.90
11280;DHT22;5696;50.928;6.960;2022-12-07T12:07:07;7.70;99.90
11280;DHT22;5696;50.928;6.960;2022-12-07T12:09:49;7.80;99.90
11280;DHT22;5696;50.928;6.960;2022-12-07T12:12:30;7.70;99.90
11280;DHT22;5696;50.928;6.960;2022-12-07T12:25:50;7.60;99.90
11280;DHT22;5696;50.928;6.960;2022-12-07T12:28:40;7.50;99.90
11280;DHT22;5696;50.928;6.960;2022-12-07T12:31:16;7.40;99.90
11280;DHT22;5696;50.928;6.960;2022-12-07T12:33:59;7.40;99.90
11280;DHT22;5696;50.928;6.960;2022-12-07T12:36:43;7.40;99.90
11280;DHT22;5696;50.928;6.960;2022-12-07T12:46:58;7.80;99.90
11280;DHT22;5696;50.928;6.960;2022-12-07T12:51:54;8.00;99.90
11280;DHT22;5696;50.928;6.960;2022-12-07T12:54:28;7.90;99.90
11280;DHT22;5696;50.928;6.960;2022-12-07T12:57:17;7.90;99.90
11280;DHT22;5696;50.928;6.960;2022-12-07T13:15:55;7.70;99.90
11280;DHT22;5696;50.928;6.960;2022-12-07T13:18:39;7.70;99.90
11280;DHT22;5696;50.928;6.960;2022-12-07T13:29:20;7.60;99.90
11280;DHT22;5696;50.928;6.960;2022-12-07T13:31:47;7.60;99.90
11280;DHT22;5696;50.928;6.960;2022-12-07T13:34:34;7.60;99.90
11280;DHT22;5696;50.928;6.960;2022-12-07T13:39:47;7.60;99.90
11280;DHT22;5696;50.928;6.960;2022-12-07T13:42:34;7.60;99.90
11280;DHT22;5696;50.928;6.960;2022-12-07T13:45:22;7.50;99.90
11280;DHT22;5696;50.928;6.960;2022-12-07T13:48:14;7.70;99.90
11280;DHT22;5696;50.928;6.960;2022-12-07T13:50:40;7.80;99.90
11280;DHT22;5696;50.928;6.960;2022-12-07T13:53:12;7.90;99.90
11280;DHT22;5696;50.928;6.960;2022-12-07T13:55:44;7.90;99.90
11280;DHT22;5696;50.928;6.960;2022-12-07T13:58:11;7.80;99.90
11280;DHT22;5696;50.928;6.960;2022-12-07T14:00:37;7.90;99.90
11280;DHT22;5696;50.928;6.960;2022-12-07T14:05:38;7.80;99.90
11280;DHT22;5696;50.928;6.960;2022-12-07T14:10:55;7.70;99.90
11280;DHT22;5696;50.928;6.960;2022-12-07T14:13:37;7.70;99.90
11280;DHT22;5696;50.928;6.960;2022-12-07T14:16:22;7.70;99.90
11280;DHT22;5696;50.928;6.960;2022-12-07T14:18:49;7.60;99.90
11280;DHT22;5696;50.928;6.960;2022-12-07T14:21:16;7.50;99.90
11280;DHT22;5696;50.928;6.960;2022-12-07T14:23:44;7.50;99.90
11280;DHT22;5696;50.928;6.960;2022-12-07T14:26:14;7.40;99.90
11280;DHT22;5696;50.928;6.960;2022-12-07T14:28:41;7.40;99.90
11280;DHT22;5696;50.928;6.960;2022-12-07T14:31:17;7.30;99.90
11280;DHT22;5696;50.928;6.960;2022-12-07T14:33:43;7.30;99.90
11280;DHT22;5696;50.928;6.960;2022-12-07T14:36:11;7.30;99.90
11280;DHT22;5696;50.928;6.960;2022-12-07T14:38:37;7.20;99.90
11280;DHT22;5696;50.928;6.960;2022-12-07T14:41:04;7.20;99.90
11280;DHT22;5696;50.928;6.960;2022-12-07T14:43:49;7.10;99.90
11280;DHT22;5696;50.928;6.960;2022-12-07T14:46:15;7.10;99.90
11280;DHT22;5696;50.928;6.960;2022-12-07T14:48:41;7.10;99.90
11280;DHT22;5696;50.928;6.960;2022-12-07T14:51:09;7.10;99.90
11280;DHT22;5696;50.928;6.960;2022-12-07T14:53:41;7.20;99.90
11280;DHT22;5696;50.928;6.960;2022-12-07T14:56:08;7.10;99.90
11280;DHT22;5696;50.928;6.960;2022-12-07T14:58:33;7.10;99.90
11280;DHT22;5696;50.928;6.960;2022-12-07T15:00:59;7.10;99.90
11280;DHT22;5696;50.928;6.960;2022-12-07T15:03:25;7.00;99.90
11280;DHT22;5696;50.928;6.960;2022-12-07T15:05:51;7.00;99.90
11280;DHT22;5696;50.928;6.960;2022-12-07T15:08:16;7.00;99.90
11280;DHT22;5696;50.928;6.960;2022-12-07T15:10:42;7.00;99.90
11280;DHT22;5696;50.928;6.960;2022-12-07T15:13:08;6.90;99.90
11280;DHT22;5696;50.928;6.960;2022-12-07T15:15:53;6.90;99.90
11280;DHT22;5696;50.928;6.960;2022-12-07T15:18:21;6.90;99.90
11280;DHT22;5696;50.928;6.960;2022-12-07T15:20:47;6.90;99.90
11280;DHT22;5696;50.928;6.960;2022-12-07T15:23:13;6.90;99.90
11280;DHT22;5696;50.928;6.960;2022-12-07T15:25:46;6.90;99.90
11280;DHT22;5696;50.928;6.960;2022-12-07T15:28:12;6.80;99.90
11280;DHT22;5696;50.928;6.960;2022-12-07T15:30:41;6.70;99.90
11280;DHT22;5696;50.928;6.960;2022-12-07T15:33:08;6.80;99.90
11280;DHT22;5696;50.928;6.960;2022-12-07T15:35:37;6.60;99.90
11280;DHT22;5696;50.928;6.960;2022-12-07T15:38:03;6.50;99.90
11280;DHT22;5696;50.928;6.960;2022-12-07T15:40:29;6.40;99.90
11280;DHT22;5696;50.928;6.960;2022-12-07T15:42:55;6.30;99.90
11280;DHT22;5696;50.928;6.960;2022-12-07T15:45:21;6.20;99.90
11280;DHT22;5696;50.928;6.960;2022-12-07T15:47:46;6.30;99.90
11280;DHT22;5696;50.928;6.960;2022-12-07T15:50:14;6.30;99.90
11280;DHT22;5696;50.928;6.960;2022-12-07T15:52:40;6.20;99.90
11280;DHT22;5696;50.928;6.960;2022-12-07T15:55:07;6.20;99.90
11280;DHT22;5696;50.928;6.960;2022-12-07T15:57:35;6.10;99.90
11280;DHT22;5696;50.928;6.960;2022-12-07T16:00:06;6.10;99.90
11280;DHT22;5696;50.928;6.960;2022-12-07T16:02:32;6.00;99.90
11280;DHT22;5696;50.928;6.960;2022-12-07T16:04:58;5.90;99.90
11280;DHT22;5696;50.928;6.960;2022-12-07T16:07:24;5.90;99.90
11280;DHT22;5696;50.928;6.960;2022-12-07T16:09:49;5.80;99.90
11280;DHT22;5696;50.928;6.960;2022-12-07T16:12:15;5.70;99.90
11280;DHT22;5696;50.928;6.960;2022-12-07T16:14:42;5.70;99.90
11280;DHT22;5696;50.928;6.960;2022-12-07T16:17:09;5.60;99.90
11280;DHT22;5696;50.928;6.960;2022-12-07T16:19:36;5.60;99.90
11280;DHT22;5696;50.928;6.960;2022-12-07T16:22:03;5.60;99.90
11280;DHT22;5696;50.928;6.960;2022-12-07T16:24:30;5.60;99.90
11280;DHT22;5696;50.928;6.960;2022-12-07T16:26:55;5.70;99.90
11280;DHT22;5696;50.928;6.960;2022-12-07T16:29:22;5.60;99.90
11280;DHT22;5696;50.928;6.960;2022-12-07T16:31:48;5.70;99.90
11280;DHT22;5696;50.928;6.960;2022-12-07T16:34:14;5.70;99.90
11280;DHT22;5696;50.928;6.960;2022-12-07T16:36:39;5.70;99.90
11280;DHT22;5696;50.928;6.960;2022-12-07T16:39:08;5.70;99.90
11280;DHT22;5696;50.928;6.960;2022-12-07T16:41:34;5.70;99.90
11280;DHT22;5696;50.928;6.960;2022-12-07T16:44:05;5.70;99.90
11280;DHT22;5696;50.928;6.960;2022-12-07T16:46:34;5.70;99.90
11280;DHT22;5696;50.928;6.960;2022-12-07T16:49:04;5.70;99.90
11280;DHT22;5696;50.928;6.960;2022-12-07T16:51:33;5.70;99.90
11280;DHT22;5696;50.928;6.960;2022-12-07T16:54:01;5.70;99.90
11280;DHT22;5696;50.928;6.960;2022-12-07T16:56:26;5.70;99.90
11280;DHT22;5696;50.928;6.960;2022-12-07T16:58:54;5.70;99.90
11280;DHT22;5696;50.928;6.960;2022-12-07T17:01:21;5.70;99.90
11280;DHT22;5696;50.928;6.960;2022-12-07T17:03:48;5.80;99.90
11280;DHT22;5696;50.928;6.960;2022-12-07T17:06:23;5.80;99.90
11280;DHT22;5696;50.928;6.960;2022-12-07T17:08:51;5.80;99.90
11280;DHT22;5696;50.928;6.960;2022-12-07T17:11:18;5.80;99.90
11280;DHT22;5696;50.928;6.960;2022-12-07T17:13:44;5.80;99.90
11280;DHT22;5696;50.928;6.960;2022-12-07T17:16:29;5.80;99.90
11280;DHT22;5696;50.928;6.960;2022-12-07T17:18:55;5.90;99.90
11280;DHT22;5696;50.928;6.960;2022-12-07T17:21:27;5.90;99.90
11280;DHT22;5696;50.928;6.960;2022-12-07T17:23:52;5.90;99.90
11280;DHT22;5696;50.928;6.960;2022-12-07T17:26:23;5.90;99.90
11280;DHT22;5696;50.928;6.960;2022-12-07T17:28:49;5.90;99.90
11280;DHT22;5696;50.928;6.960;2022-12-07T17:31:16;5.90;99.90
11280;DHT22;5696;50.928;6.960;2022-12-07T17:33:46;5.90;99.90
11280;DHT22;5696;50.928;6.960;2022-12-07T17:36:12;5.90;99.90
11280;DHT22;5696;50.928;6.960;2022-12-07T17:38:39;5.90;99.90
11280;DHT22;5696;50.928;6.960;2022-12-07T17:41:10;6.00;99.90
11280;DHT22;5696;50.928;6.960;2022-12-07T17:43:36;6.00;99.90
11280;DHT22;5696;50.928;6.960;2022-12-07T17:49:27;6.00;99.90
11280;DHT22;5696;50.928;6.960;2022-12-07T17:51:53;6.00;99.90
11280;DHT22;5696;50.928;6.960;2022-12-07T17:54:37;6.00;99.90
11280;DHT22;5696;50.928;6.960;2022-12-07T17:57:05;6.00;99.90
11280;DHT22;5696;50.928;6.960;2022-12-07T17:59:31;6.00;99.90
11280;DHT22;5696;50.928;6.960;2022-12-07T18:01:57;6.00;99.90
11280;DHT22;5696;50.928;6.960;2022-12-07T18:04:22;6.00;99.90
11280;DHT22;5696;50.928;6.960;2022-12-07T18:06:48;6.00;99.90
11280;DHT22;5696;50.928;6.960;2022-12-07T18:09:14;6.00;99.90
11280;DHT22;5696;50.928;6.960;2022-12-07T18:11:39;6.10;99.90
11280;DHT22;5696;50.928;6.960;2022-12-07T18:14:05;6.00;99.90
11280;DHT22;5696;50.928;6.960;2022-12-07T18:16:32;6.00;99.90
11280;DHT22;5696;50.928;6.960;2022-12-07T18:19:01;6.10;99.90
11280;DHT22;5696;50.928;6.960;2022-12-07T18:21:28;6.10;99.90
11280;DHT22;5696;50.928;6.960;2022-12-07T18:23:57;6.20;99.90
11280;DHT22;5696;50.928;6.960;2022-12-07T18:26:29;6.20;99.90
11280;DHT22;5696;50.928;6.960;2022-12-07T18:28:57;6.10;99.90
11280;DHT22;5696;50.928;6.960;2022-12-07T18:31:22;6.20;99.90
11280;DHT22;5696;50.928;6.960;2022-12-07T18:33:48;6.20;99.90
11280;DHT22;5696;50.928;6.960;2022-12-07T18:36:16;6.10;99.90
11280;DHT22;5696;50.928;6.960;2022-12-07T18:38:42;6.10;99.90
11280;DHT22;5696;50.928;6.960;2022-12-07T18:41:10;6.10;99.90
11280;DHT22;5696;50.928;6.960;2022-12-07T18:43:36;6.10;99.90
11280;DHT22;5696;50.928;6.960;2022-12-07T18:46:09;6.10;99.90
11280;DHT22;5696;50.928;6.960;2022-12-07T18:48:35;6.10;99.90
11280;DHT22;5696;50.928;6.960;2022-12-07T18:51:02;6.10;99.90
11280;DHT22;5696;50.928;6.960;2022-12-07T18:53:29;6.20;99.90
11280;DHT22;5696;50.928;6.960;2022-12-07T18:56:15;6.10;99.90
11280;DHT22;5696;50.928;6.960;2022-12-07T18:58:41;6.10;99.90
11280;DHT22;5696;50.928;6.960;2022-12-07T19:01:28;6.00;99.90
11280;DHT22;5696;50.928;6.960;2022-12-07T19:03:55;6.00;99.90
11280;DHT22;5696;50.928;6.960;2022-12-07T19:06:21;6.00;99.90
11280;DHT22;5696;50.928;6.960;2022-12-07T19:08:47;6.00;99.90
11280;DHT22;5696;50.928;6.960;2022-12-07T19:11:21;6.00;99.90
11280;DHT22;5696;50.928;6.960;2022-12-07T19:14:05;6.10;99.90
11280;DHT22;5696;50.928;6.960;2022-12-07T19:16:31;6.00;99.90
11280;DHT22;5696;50.928;6.960;2022-12-07T19:18:57;6.00;99.90
11280;DHT22;5696;50.928;6.960;2022-12-07T19:21:22;6.00;99.90
11280;DHT22;5696;50.928;6.960;2022-12-07T19:23:48;6.00;99.90
11280;DHT22;5696;50.928;6.960;2022-12-07T19:26:14;6.00;99.90
11280;DHT22;5696;50.928;6.960;2022-12-07T19:28:39;6.00;99.90
11280;DHT22;5696;50.928;6.960;2022-12-07T19:31:09;6.00;99.90
11280;DHT22;5696;50.928;6.960;2022-12-07T19:33:38;6.00;99.90
11280;DHT22;5696;50.928;6.960;2022-12-07T19:36:04;6.00;99.90
11280;DHT22;5696;50.928;6.960;2022-12-07T19:38:33;6.00;99.90
11280;DHT22;5696;50.928;6.960;2022-12-07T19:43:34;5.90;99.90
11280;DHT22;5696;50.928;6.960;2022-12-07T19:46:06;5.90;99.90
11280;DHT22;5696;50.928;6.960;2022-12-07T19:48:33;5.90;99.90
11280;DHT22;5696;50.928;6.960;2022-12-07T19:51:03;5.90;99.90
11280;DHT22;5696;50.928;6.960;2022-12-07T19:53:31;5.90;99.90
11280;DHT22;5696;50.928;6.960;2022-12-07T19:55:57;5.90;99.90
11280;DHT22;5696;50.928;6.960;2022-12-07T19:58:22;5.90;99.90
11280;DHT22;5696;50.928;6.960;2022-12-07T20:00:48;5.80;99.90
11280;DHT22;5696;50.928;6.960;2022-12-07T20:03:16;5.80;99.90
11280;DHT22;5696;50.928;6.960;2022-12-07T20:05:42;5.80;99.90
11280;DHT22;5696;50.928;6.960;2022-12-07T20:08:07;5.80;99.90
11280;DHT22;5696;50.928;6.960;2022-12-07T20:10:33;5.80;99.90
11280;DHT22;5696;50.928;6.960;2022-12-07T20:12:59;5.70;99.90
11280;DHT22;5696;50.928;6.960;2022-12-07T20:15:44;5.70;99.90
11280;DHT22;5696;50.928;6.960;2022-12-07T20:18:09;5.70;99.90
11280;DHT22;5696;50.928;6.960;2022-12-07T20:20:35;5.70;99.90
11280;DHT22;5696;50.928;6.960;2022-12-07T20:23:00;5.60;99.90
11280;DHT22;5696;50.928;6.960;2022-12-07T20:25:26;5.60;99.90
11280;DHT22;5696;50.928;6.960;2022-12-07T20:27:52;5.60;99.90
11280;DHT22;5696;50.928;6.960;2022-12-07T20:30:17;5.60;99.90
11280;DHT22;5696;50.928;6.960;2022-12-07T20:32:43;5.60;99.90
11280;DHT22;5696;50.928;6.960;2022-12-07T20:35:09;5.50;99.90
11280;DHT22;5696;50.928;6.960;2022-12-07T20:37:34;5.50;99.90
11280;DHT22;5696;50.928;6.960;2022-12-07T20:40:00;5.50;99.90
11280;DHT22;5696;50.928;6.960;2022-12-07T20:42:25;5.50;99.90
11280;DHT22;5696;50.928;6.960;2022-12-07T20:45:04;5.50;99.90
11280;DHT22;5696;50.928;6.960;2022-12-07T20:47:32;5.50;99.90
11280;DHT22;5696;50.928;6.960;2022-12-07T20:49:59;5.50;99.90
11280;DHT22;5696;50.928;6.960;2022-12-07T20:52:25;5.50;99.90
11280;DHT22;5696;50.928;6.960;2022-12-07T20:54:51;5.40;99.90
11280;DHT22;5696;50.928;6.960;2022-12-07T20:57:16;5.50;99.90
11280;DHT22;5696;50.928;6.960;2022-12-07T20:59:42;5.50;99.90
11280;DHT22;5696;50.928;6.960;2022-12-07T21:02:11;5.50;99.90
11280;DHT22;5696;50.928;6.960;2022-12-07T21:04:38;5.50;99.90
11280;DHT22;5696;50.928;6.960;2022-12-07T21:07:04;5.50;99.90
11280;DHT22;5696;50.928;6.960;2022-12-07T21:09:30;5.60;99.90
11280;DHT22;5696;50.928;6.960;2022-12-07T21:11:55;5.60;99.90
11280;DHT22;5696;50.928;6.960;2022-12-07T21:14:21;5.70;99.90
11280;DHT22;5696;50.928;6.960;2022-12-07T21:16:47;5.60;99.90
11280;DHT22;5696;50.928;6.960;2022-12-07T21:19:13;5.60;99.90
11280;DHT22;5696;50.928;6.960;2022-12-07T21:21:38;5.60;99.90
11280;DHT22;5696;50.928;6.960;2022-12-07T21:24:05;5.50;99.90
11280;DHT22;5696;50.928;6.960;2022-12-07T21:26:34;5.60;99.90
11280;DHT22;5696;50.928;6.960;2022-12-07T21:29:03;5.50;99.90
11280;DHT22;5696;50.928;6.960;2022-12-07T21:31:29;5.40;99.90
11280;DHT22;5696;50.928;6.960;2022-12-07T21:33:55;5.40;99.90
11280;DHT22;5696;50.928;6.960;2022-12-07T21:36:23;5.40;99.90
11280;DHT22;5696;50.928;6.960;2022-12-07T21:38:50;5.50;99.90
11280;DHT22;5696;50.928;6.960;2022-12-07T21:41:18;5.50;99.90
11280;DHT22;5696;50.928;6.960;2022-12-07T21:43:45;5.40;99.90
11280;DHT22;5696;50.928;6.960;2022-12-07T21:46:12;5.40;99.90
11280;DHT22;5696;50.928;6.960;2022-12-07T21:48:38;5.40;99.90
11280;DHT22;5696;50.928;6.960;2022-12-07T21:51:10;5.40;99.90
11280;DHT22;5696;50.928;6.960;2022-12-07T21:53:36;5.40;99.90
11280;DHT22;5696;50.928;6.960;2022-12-07T21:56:03;5.40;99.90
11280;DHT22;5696;50.928;6.960;2022-12-07T21:58:29;5.40;99.90
11280;DHT22;5696;50.928;6.960;2022-12-07T22:00:57;5.40;99.90
11280;DHT22;5696;50.928;6.960;2022-12-07T22:03:23;5.40;99.90
11280;DHT22;5696;50.928;6.960;2022-12-07T22:05:49;5.30;99.90
11280;DHT22;5696;50.928;6.960;2022-12-07T22:08:16;5.40;99.90
11280;DHT22;5696;50.928;6.960;2022-12-07T22:10:42;5.40;99.90
11280;DHT22;5696;50.928;6.960;2022-12-07T22:13:08;5.40;99.90
11280;DHT22;5696;50.928;6.960;2022-12-07T22:15:34;5.40;99.90
11280;DHT22;5696;50.928;6.960;2022-12-07T22:17:59;5.40;99.90
11280;DHT22;5696;50.928;6.960;2022-12-07T22:20:25;5.40;99.90
11280;DHT22;5696;50.928;6.960;2022-12-07T22:22:51;5.40;99.90
11280;DHT22;5696;50.928;6.960;2022-12-07T22:25:17;5.40;99.90
11280;DHT22;5696;50.928;6.960;2022-12-07T22:27:42;5.40;99.90
11280;DHT22;5696;50.928;6.960;2022-12-07T22:30:10;5.40;99.90
11280;DHT22;5696;50.928;6.960;2022-12-07T22:32:37;5.40;99.90
11280;DHT22;5696;50.928;6.960;2022-12-07T22:35:03;5.40;99.90
11280;DHT22;5696;50.928;6.960;2022-12-07T22:37:29;5.40;99.90
11280;DHT22;5696;50.928;6.960;2022-12-07T22:39:55;5.40;99.90
11280;DHT22;5696;50.928;6.960;2022-12-07T22:42:21;5.40;99.90
11280;DHT22;5696;50.928;6.960;2022-12-07T22:44:46;5.40;99.90
11280;DHT22;5696;50.928;6.960;2022-12-07T22:47:13;5.30;99.90
11280;DHT22;5696;50.928;6.960;2022-12-07T22:49:39;5.30;99.90
11280;DHT22;5696;50.928;6.960;2022-12-07T22:52:04;5.30;99.90
11280;DHT22;5696;50.928;6.960;2022-12-07T22:54:30;5.30;99.90
11280;DHT22;5696;50.928;6.960;2022-12-07T22:56:55;5.30;99.90
11280;DHT22;5696;50.928;6.960;2022-12-07T22:59:21;5.30;99.90
11280;DHT22;5696;50.928;6.960;2022-12-07T23:01:47;5.30;99.90
11280;DHT22;5696;50.928;6.960;2022-12-07T23:04:12;5.30;99.90
11280;DHT22;5696;50.928;6.960;2022-12-07T23:06:38;5.30;99.90
